Wes Sellars — WDF9302 — position and weather

sailwx.info

Track history (hours):
 
Tides and Currents Weather Stations Pressure Air Temp Water Temp Dewpoint Dewpoint Depression Visibility Wind Speed Wind Dir Waves Ship Positions

Wes Sellars

Owner: Florida Marine, LLC, Mandeville, LA. More information available from US FCC via Universal Licensing System and Coast Guard Vessel Documentation Center.

Last reported at 2016-Jul-30 01:33 UTC. Time now 2016-Jul-30 01:59 UTC.
Position N 29°45' W 095°06'.

Length 27 m.

Type: Towing. MMSI: 367503760.

Date/timePositionNaut miles runAvg speedWind from/ knotsBaromVisibWave heightAir tempDewpointWater temp
2016-Jul-30 01:33N 29°45' W 095°06'0 0.0
2016-Jul-30 00:33N 29°45' W 095°06'0 0.0
2016-Jul-29 23:33N 29°45' W 095°06'0 0.0
2016-Jul-29 22:33N 29°45' W 095°06'0 0.0
2016-Jul-29 21:33N 29°45' W 095°06'0 0.0
2016-Jul-29 20:33N 29°45' W 095°06'0 0.0
2016-Jul-29 19:33N 29°45' W 095°06'0 0.0
2016-Jul-29 18:33N 29°45' W 095°06'0 0.0
2016-Jul-29 17:33N 29°45' W 095°06'0 0.0
2016-Jul-29 16:33N 29°45' W 095°06'1 0.2
2016-Jul-29 12:26N 29°46' W 095°06'0 0.0
2016-Jul-29 11:33N 29°46' W 095°06'0 0.0
2016-Jul-29 10:32N 29°46' W 095°06'0 0.0
2016-Jul-29 09:25N 29°46' W 095°06'0 0.0
2016-Jul-29 08:31N 29°46' W 095°06'0 0.0
2016-Jul-28 23:14N 29°46' W 095°06'0 0.2
2016-Jul-28 22:33N 29°46' W 095°06'2 2.3
2016-Jul-28 21:31N 29°47' W 095°04'0 0.2
2016-Jul-28 20:33N 29°47' W 095°04'0 0.0
2016-Jul-28 19:33N 29°47' W 095°04'5 4.5
2016-Jul-28 18:32N 29°44' W 095°08'4 0.1
2016-Jul-27 16:22N 29°44' W 095°12'1 0.1
2016-Jul-26 22:26N 29°45' W 095°11'5 5.9
2016-Jul-26 21:33N 29°46' W 095°05'2 2.3
2016-Jul-26 20:33N 29°47' W 095°04'1 1.1
2016-Jul-26 19:28N 29°46' W 095°05'0 0.0
2016-Jul-26 18:17N 29°47' W 095°05'1 1.4
2016-Jul-26 17:33N 29°46' W 095°06'0 0.4
2016-Jul-26 16:23N 29°46' W 095°06'1 1.8
2016-Jul-26 15:32N 29°47' W 095°05'1 0.5
2016-Jul-26 13:15N 29°47' W 095°06'0 0.2
2016-Jul-26 12:33N 29°47' W 095°06'0 0.0
2016-Jul-26 11:32N 29°47' W 095°06'0 0.0
2016-Jul-26 10:33N 29°47' W 095°06'0 0.0
2016-Jul-26 09:33N 29°47' W 095°06'1 1.4
2016-Jul-26 08:33N 29°47' W 095°04'3 3.1
2016-Jul-26 07:33N 29°45' W 095°06'0 0.0
2016-Jul-26 06:33N 29°45' W 095°06'0 0.0
2016-Jul-26 05:33N 29°45' W 095°06'0 0.0
2016-Jul-26 04:33N 29°45' W 095°06'0 0.0
2016-Jul-26 03:33N 29°45' W 095°06'0 0.0
2016-Jul-26 02:33N 29°45' W 095°06'0 0.0
2016-Jul-26 01:33N 29°45' W 095°06'0 0.0
2016-Jul-26 00:33N 29°45' W 095°06'0 0.0
2016-Jul-25 23:33N 29°45' W 095°06'0 0.0
2016-Jul-25 22:33N 29°45' W 095°06'0 0.0
2016-Jul-25 21:33N 29°45' W 095°06'0 0.0
2016-Jul-25 20:33N 29°45' W 095°06'0 0.0
2016-Jul-25 19:33N 29°45' W 095°06'0 0.0
2016-Jul-25 18:33N 29°45' W 095°06'0 0.0
2016-Jul-25 17:33N 29°45' W 095°06'0 0.0
2016-Jul-25 16:33N 29°45' W 095°06'0 0.0
2016-Jul-25 15:33N 29°45' W 095°06'0 0.0
2016-Jul-25 14:33N 29°45' W 095°06'2 1.4
2016-Jul-25 13:24N 29°46' W 095°06'2 1.8
2016-Jul-25 12:33N 29°45' W 095°06'0 0.0
2016-Jul-25 11:33N 29°45' W 095°06'0 0.0
2016-Jul-25 10:33N 29°45' W 095°06'0 0.0
2016-Jul-25 09:33N 29°45' W 095°06'1 1.0
2016-Jul-25 08:32N 29°46' W 095°06'2 2.5
2016-Jul-25 07:33N 29°47' W 095°04'0 0.1
2016-Jul-25 06:33N 29°47' W 095°04'1 0.3
2016-Jul-25 02:20N 29°47' W 095°05'1 1.5
2016-Jul-25 01:33N 29°47' W 095°04'1 0.6
2016-Jul-25 00:33N 29°47' W 095°05'2 1.5
2016-Jul-24 23:31N 29°46' W 095°06'0 0.0
2016-Jul-24 22:29N 29°46' W 095°06'0 0.0
2016-Jul-24 21:21N 29°46' W 095°06'0 0.0
2016-Jul-24 20:32N 29°46' W 095°06'0 0.0
2016-Jul-24 19:33N 29°46' W 095°06'0 0.0
2016-Jul-24 18:32N 29°46' W 095°06'0 0.0
2016-Jul-24 17:29N 29°46' W 095°06'0 0.0
2016-Jul-24 15:33N 29°46' W 095°06'0 0.0
2016-Jul-24 14:30N 29°46' W 095°06'0 0.0
2016-Jul-24 12:25N 29°46' W 095°06'0 0.0
2016-Jul-23 23:11N 29°46' W 095°06'0 0.0
2016-Jul-23 22:32N 29°46' W 095°06'0 0.0
2016-Jul-23 21:27N 29°46' W 095°06'0 0.2
2016-Jul-23 20:31N 29°46' W 095°06'0 0.2
2016-Jul-23 19:31N 29°46' W 095°06'0 0.0
2016-Jul-23 15:22N 29°46' W 095°06'0 0.0
2016-Jul-23 14:32N 29°46' W 095°06'0 0.0
2016-Jul-23 13:33N 29°46' W 095°06'0 0.0
2016-Jul-23 12:30N 29°46' W 095°06'0 0.0
2016-Jul-23 07:23N 29°46' W 095°06'0 0.0
2016-Jul-23 06:30N 29°46' W 095°06'0 0.0
2016-Jul-23 04:29N 29°46' W 095°06'0 0.0
2016-Jul-23 03:33N 29°46' W 095°06'0 0.0
2016-Jul-23 02:23N 29°46' W 095°06'0 0.0
2016-Jul-23 01:33N 29°46' W 095°06'0 0.0
2016-Jul-23 00:15N 29°46' W 095°06'0 0.3
2016-Jul-22 23:27N 29°46' W 095°06'0 0.0
2016-Jul-22 22:31N 29°46' W 095°06'0 0.0
2016-Jul-22 21:27N 29°46' W 095°06'1 0.8
2016-Jul-22 20:31N 29°46' W 095°05'0 0.1
2016-Jul-22 19:30N 29°46' W 095°05'0 0.4
2016-Jul-22 18:24N 29°46' W 095°06'1 1.6
2016-Jul-22 17:32N 29°47' W 095°05'0 0.0
2016-Jul-22 06:17N 29°47' W 095°06'0 0.0
2016-Jul-22 02:11N 29°47' W 095°06'0 0.0
2016-Jul-22 01:31N 29°47' W 095°06'0 0.0
2016-Jul-22 00:27N 29°47' W 095°06'0 0.0
2016-Jul-21 23:31N 29°47' W 095°06'0 0.0
2016-Jul-21 22:04N 29°47' W 095°06'2 1.0
2016-Jul-21 20:33N 29°47' W 095°04'2 2.0
2016-Jul-21 19:32N 29°46' W 095°05'0 0.1
2016-Jul-21 18:33N 29°46' W 095°05'2 0.3
2016-Jul-21 12:30N 29°47' W 095°04'0 0.5
2016-Jul-21 11:33N 29°47' W 095°05'1 0.1
2016-Jul-21 04:23N 29°47' W 095°06'0 0.0
2016-Jul-21 00:27N 29°47' W 095°06'0 0.0
2016-Jul-20 15:08N 29°47' W 095°06'1 1.7
2016-Jul-20 14:33N 29°47' W 095°05'1 0.9
2016-Jul-20 13:27N 29°46' W 095°05'1 1.4
2016-Jul-20 12:33N 29°47' W 095°06'1 1.1
2016-Jul-20 11:33N 29°47' W 095°04'2 0.8
2016-Jul-20 09:21N 29°46' W 095°06'  
Track history (hours):
 
Tides and Currents Weather Stations Pressure Air Temp Water Temp Dewpoint Dewpoint Depression Visibility Wind Speed Wind Dir Waves Ship Positions

Wes Sellars

Owner: Florida Marine, LLC, Mandeville, LA. More information available from US FCC via Universal Licensing System and Coast Guard Vessel Documentation Center.

Last reported at 2016-Jul-30 01:33 UTC. Time now 2016-Jul-30 01:59 UTC.
Position N 29°45' W 095°06'.

Length 27 m.

Type: Towing. MMSI: 367503760.

Date/timePositionNaut miles runAvg speedWind from/ knotsBaromVisibWave heightAir tempDewpointWater temp
2016-Jul-30 01:33N 29°45' W 095°06'0 0.0
2016-Jul-30 00:33N 29°45' W 095°06'0 0.0
2016-Jul-29 23:33N 29°45' W 095°06'0 0.0
2016-Jul-29 22:33N 29°45' W 095°06'0 0.0
2016-Jul-29 21:33N 29°45' W 095°06'0 0.0
2016-Jul-29 20:33N 29°45' W 095°06'0 0.0
2016-Jul-29 19:33N 29°45' W 095°06'0 0.0
2016-Jul-29 18:33N 29°45' W 095°06'0 0.0
2016-Jul-29 17:33N 29°45' W 095°06'0 0.0
2016-Jul-29 16:33N 29°45' W 095°06'1 0.2
2016-Jul-29 12:26N 29°46' W 095°06'0 0.0
2016-Jul-29 11:33N 29°46' W 095°06'0 0.0
2016-Jul-29 10:32N 29°46' W 095°06'0 0.0
2016-Jul-29 09:25N 29°46' W 095°06'0 0.0
2016-Jul-29 08:31N 29°46' W 095°06'0 0.0
2016-Jul-28 23:14N 29°46' W 095°06'0 0.2
2016-Jul-28 22:33N 29°46' W 095°06'2 2.3
2016-Jul-28 21:31N 29°47' W 095°04'0 0.2
2016-Jul-28 20:33N 29°47' W 095°04'0 0.0
2016-Jul-28 19:33N 29°47' W 095°04'5 4.5
2016-Jul-28 18:32N 29°44' W 095°08'4 0.1
2016-Jul-27 16:22N 29°44' W 095°12'1 0.1
2016-Jul-26 22:26N 29°45' W 095°11'5 5.9
2016-Jul-26 21:33N 29°46' W 095°05'2 2.3
2016-Jul-26 20:33N 29°47' W 095°04'1 1.1
2016-Jul-26 19:28N 29°46' W 095°05'0 0.0
2016-Jul-26 18:17N 29°47' W 095°05'1 1.4
2016-Jul-26 17:33N 29°46' W 095°06'0 0.4
2016-Jul-26 16:23N 29°46' W 095°06'1 1.8
2016-Jul-26 15:32N 29°47' W 095°05'1 0.5
2016-Jul-26 13:15N 29°47' W 095°06'0 0.2
2016-Jul-26 12:33N 29°47' W 095°06'0 0.0
2016-Jul-26 11:32N 29°47' W 095°06'0 0.0
2016-Jul-26 10:33N 29°47' W 095°06'0 0.0
2016-Jul-26 09:33N 29°47' W 095°06'1 1.4
2016-Jul-26 08:33N 29°47' W 095°04'3 3.1
2016-Jul-26 07:33N 29°45' W 095°06'0 0.0
2016-Jul-26 06:33N 29°45' W 095°06'0 0.0
2016-Jul-26 05:33N 29°45' W 095°06'0 0.0
2016-Jul-26 04:33N 29°45' W 095°06'0 0.0
2016-Jul-26 03:33N 29°45' W 095°06'0 0.0
2016-Jul-26 02:33N 29°45' W 095°06'0 0.0
2016-Jul-26 01:33N 29°45' W 095°06'0 0.0
2016-Jul-26 00:33N 29°45' W 095°06'0 0.0
2016-Jul-25 23:33N 29°45' W 095°06'0 0.0
2016-Jul-25 22:33N 29°45' W 095°06'0 0.0
2016-Jul-25 21:33N 29°45' W 095°06'0 0.0
2016-Jul-25 20:33N 29°45' W 095°06'0 0.0
2016-Jul-25 19:33N 29°45' W 095°06'0 0.0
2016-Jul-25 18:33N 29°45' W 095°06'0 0.0
2016-Jul-25 17:33N 29°45' W 095°06'0 0.0
2016-Jul-25 16:33N 29°45' W 095°06'0 0.0
2016-Jul-25 15:33N 29°45' W 095°06'0 0.0
2016-Jul-25 14:33N 29°45' W 095°06'2 1.4
2016-Jul-25 13:24N 29°46' W 095°06'2 1.8
2016-Jul-25 12:33N 29°45' W 095°06'0 0.0
2016-Jul-25 11:33N 29°45' W 095°06'0 0.0
2016-Jul-25 10:33N 29°45' W 095°06'0 0.0
2016-Jul-25 09:33N 29°45' W 095°06'1 1.0
2016-Jul-25 08:32N 29°46' W 095°06'2 2.5
2016-Jul-25 07:33N 29°47' W 095°04'0 0.1
2016-Jul-25 06:33N 29°47' W 095°04'1 0.3
2016-Jul-25 02:20N 29°47' W 095°05'1 1.5
2016-Jul-25 01:33N 29°47' W 095°04'1 0.6
2016-Jul-25 00:33N 29°47' W 095°05'2 1.5
2016-Jul-24 23:31N 29°46' W 095°06'0 0.0
2016-Jul-24 22:29N 29°46' W 095°06'0 0.0
2016-Jul-24 21:21N 29°46' W 095°06'0 0.0
2016-Jul-24 20:32N 29°46' W 095°06'0 0.0
2016-Jul-24 19:33N 29°46' W 095°06'0 0.0
2016-Jul-24 18:32N 29°46' W 095°06'0 0.0
2016-Jul-24 17:29N 29°46' W 095°06'0 0.0
2016-Jul-24 15:33N 29°46' W 095°06'0 0.0
2016-Jul-24 14:30N 29°46' W 095°06'0 0.0
2016-Jul-24 12:25N 29°46' W 095°06'0 0.0
2016-Jul-23 23:11N 29°46' W 095°06'0 0.0
2016-Jul-23 22:32N 29°46' W 095°06'0 0.0
2016-Jul-23 21:27N 29°46' W 095°06'0 0.2
2016-Jul-23 20:31N 29°46' W 095°06'0 0.2
2016-Jul-23 19:31N 29°46' W 095°06'0 0.0
2016-Jul-23 15:22N 29°46' W 095°06'0 0.0
2016-Jul-23 14:32N 29°46' W 095°06'0 0.0
2016-Jul-23 13:33N 29°46' W 095°06'0 0.0
2016-Jul-23 12:30N 29°46' W 095°06'0 0.0
2016-Jul-23 07:23N 29°46' W 095°06'0 0.0
2016-Jul-23 06:30N 29°46' W 095°06'0 0.0
2016-Jul-23 04:29N 29°46' W 095°06'0 0.0
2016-Jul-23 03:33N 29°46' W 095°06'0 0.0
2016-Jul-23 02:23N 29°46' W 095°06'0 0.0
2016-Jul-23 01:33N 29°46' W 095°06'0 0.0
2016-Jul-23 00:15N 29°46' W 095°06'0 0.3
2016-Jul-22 23:27N 29°46' W 095°06'0 0.0
2016-Jul-22 22:31N 29°46' W 095°06'0 0.0
2016-Jul-22 21:27N 29°46' W 095°06'1 0.8
2016-Jul-22 20:31N 29°46' W 095°05'0 0.1
2016-Jul-22 19:30N 29°46' W 095°05'0 0.4
2016-Jul-22 18:24N 29°46' W 095°06'1 1.6
2016-Jul-22 17:32N 29°47' W 095°05'0 0.0
2016-Jul-22 06:17N 29°47' W 095°06'0 0.0
2016-Jul-22 02:11N 29°47' W 095°06'0 0.0
2016-Jul-22 01:31N 29°47' W 095°06'0 0.0
2016-Jul-22 00:27N 29°47' W 095°06'0 0.0
2016-Jul-21 23:31N 29°47' W 095°06'0 0.0
2016-Jul-21 22:04N 29°47' W 095°06'2 1.0
2016-Jul-21 20:33N 29°47' W 095°04'2 2.0
2016-Jul-21 19:32N 29°46' W 095°05'0 0.1
2016-Jul-21 18:33N 29°46' W 095°05'2 0.3
2016-Jul-21 12:30N 29°47' W 095°04'0 0.5
2016-Jul-21 11:33N 29°47' W 095°05'1 0.1
2016-Jul-21 04:23N 29°47' W 095°06'0 0.0
2016-Jul-21 00:27N 29°47' W 095°06'0 0.0
2016-Jul-20 15:08N 29°47' W 095°06'1 1.7
2016-Jul-20 14:33N 29°47' W 095°05'1 0.9
2016-Jul-20 13:27N 29°46' W 095°05'1 1.4
2016-Jul-20 12:33N 29°47' W 095°06'1 1.1
2016-Jul-20 11:33N 29°47' W 095°04'2 0.8
2016-Jul-20 09:21N 29°46' W 095°06'  

Dump ship's entire track history